Time;durP1;ratioP1;P1;durP2;ratioP2;P2;SDS_P1;SDS_P2;PMS_P1;PMS_P2;Temp;Humidity;BMP_temperature;BMP_pressure;BME280_temperature;BME280_humidity;BME280_pressure;Samples;Min_cycle;Max_cycle;Signal;HPM_P1;HPM_P2
2022/11/27 00:03:34;;;;;;;65.10;28.40;;;;;;;1.27;84.56;101173.49;210027;1297;140255;-66
2022/11/27 00:08:38;;;;;;;66.20;31.70;;;;;;;1.30;84.68;101171.31;210196;1288;140075;-66
2022/11/27 00:13:41;;;;;;;70.30;34.00;;;;;;;1.25;84.14;101167.20;209924;1295;140748;-66
2022/11/27 00:18:45;;;;;;;75.20;33.40;;;;;;;1.20;84.44;101166.28;210117;1288;139813;-66
2022/11/27 00:23:51;;;;;;;62.10;28.80;;;;;;;1.26;84.90;101166.98;209908;1297;139703;-66
2022/11/27 00:28:54;;;;;;;59.20;31.80;;;;;;;1.35;84.67;101161.24;209903;1297;139947;-67
2022/11/27 00:34:00;;;;;;;59.80;29.90;;;;;;;1.32;84.37;101164.45;210060;1294;140804;-67
2022/11/27 00:39:04;;;;;;;60.10;30.20;;;;;;;1.24;84.34;101162.59;209951;1288;139717;-66
2022/11/27 00:44:07;;;;;;;69.50;30.10;;;;;;;1.25;84.80;101170.56;210116;1292;141181;-67
2022/11/27 00:49:13;;;;;;;57.10;29.60;;;;;;;1.31;84.41;101175.22;209953;1297;140277;-66
2022/11/27 00:54:16;;;;;;;70.20;34.00;;;;;;;1.36;84.61;101177.84;210179;1297;141400;-66
2022/11/27 00:59:25;;;;;;;71.70;33.80;;;;;;;1.31;84.89;101175.13;210197;1303;140401;-67
2022/11/27 01:04:29;;;;;;;66.10;29.60;;;;;;;1.31;84.48;101175.23;210064;1293;140054;-67
2022/11/27 01:09:32;;;;;;;59.30;33.50;;;;;;;1.36;84.66;101174.33;209889;1296;140660;-67
2022/11/27 01:14:35;;;;;;;62.40;30.80;;;;;;;1.38;84.53;101179.34;210045;1290;141679;-67
2022/11/27 01:19:39;;;;;;;51.50;26.70;;;;;;;1.28;84.38;101176.95;210234;1297;139779;-67
2022/11/27 01:24:43;;;;;;;66.90;33.50;;;;;;;1.20;84.52;101178.42;210045;1290;140772;-66
2022/11/27 01:29:46;;;;;;;66.60;34.50;;;;;;;1.26;84.50;101179.05;210101;1294;140664;-66
2022/11/27 01:34:49;;;;;;;65.20;31.60;;;;;;;1.26;84.87;101177.48;210042;1297;140899;-66
2022/11/27 01:39:52;;;;;;;75.70;32.10;;;;;;;1.23;84.64;101181.11;210124;1288;140217;-67
2022/11/27 01:44:55;;;;;;;64.80;31.30;;;;;;;1.27;84.77;101188.46;210147;1297;140286;-66
2022/11/27 01:50:11;;;;;;;69.40;35.90;;;;;;;1.36;85.06;101189.84;210196;1297;139709;-66
2022/11/27 01:55:30;;;;;;;65.20;33.90;;;;;;;1.40;85.41;101189.70;210093;1297;140054;-67
2022/11/27 02:00:34;;;;;;;73.40;32.90;;;;;;;1.49;85.33;101198.69;209998;1297;141117;-66
2022/11/27 02:05:37;;;;;;;73.40;38.20;;;;;;;1.55;84.86;101191.58;210013;1297;140175;-67
2022/11/27 02:10:49;;;;;;;73.50;35.90;;;;;;;1.48;84.90;101190.36;210142;1296;140694;-66
2022/11/27 02:16:08;;;;;;;72.40;34.60;;;;;;;1.47;85.25;101193.30;210025;1289;140062;-66
2022/11/27 02:21:44;;;;;;;66.70;33.10;;;;;;;1.48;85.22;101191.39;210095;1297;139908;-66
2022/11/27 02:27:06;;;;;;;72.50;34.90;;;;;;;1.55;84.82;101187.63;210177;1294;141201;-66
2022/11/27 02:32:12;;;;;;;46.80;26.70;;;;;;;1.51;84.86;101188.48;210032;1296;143005;-67
2022/11/27 02:37:26;;;;;;;60.20;30.00;;;;;;;1.42;84.57;101190.70;209068;1303;140299;-66
2022/11/27 02:42:35;;;;;;;60.00;31.30;;;;;;;1.44;85.10;101197.42;210141;1297;140898;-66
2022/11/27 02:47:42;;;;;;;77.70;37.60;;;;;;;1.50;85.41;101199.69;209677;1298;140157;-67
2022/11/27 02:52:48;;;;;;;84.60;37.20;;;;;;;1.53;85.33;101202.55;210156;1288;139553;-67
2022/11/27 02:57:55;;;;;;;69.30;32.70;;;;;;;1.57;85.47;101206.27;209930;1293;141584;-67
2022/11/27 03:03:04;;;;;;;66.50;37.10;;;;;;;1.65;85.08;101202.58;210164;1297;233844;-66
2022/11/27 03:08:31;;;;;;;71.80;40.30;;;;;;;1.64;85.14;101204.05;210155;1293;140456;-67
2022/11/27 03:13:39;;;;;;;71.20;32.50;;;;;;;1.63;85.31;101209.39;210029;1297;140579;-67
2022/11/27 03:18:54;;;;;;;66.60;33.00;;;;;;;1.63;85.11;101204.16;209792;1297;140748;-67
2022/11/27 03:23:58;;;;;;;73.40;38.30;;;;;;;1.67;84.70;101204.54;210129;1295;141224;-66
2022/11/27 03:29:06;;;;;;;70.40;39.20;;;;;;;1.64;84.99;101202.36;210224;1297;141063;-66
2022/11/27 03:34:10;;;;;;;73.50;36.50;;;;;;;1.62;85.30;101198.29;209998;1297;139833;-67
2022/11/27 03:39:14;;;;;;;60.00;28.80;;;;;;;1.63;85.30;101200.02;210024;1296;152500;-66
2022/11/27 03:44:29;;;;;;;76.10;37.90;;;;;;;1.60;84.68;101194.09;209922;1296;142045;-66
2022/11/27 03:49:49;;;;;;;67.20;34.10;;;;;;;1.55;84.59;101191.75;210138;1289;140771;-66
2022/11/27 03:55:09;;;;;;;71.60;34.80;;;;;;;1.50;84.92;101193.91;210266;1294;140088;-69
2022/11/27 04:00:13;;;;;;;60.40;29.50;;;;;;;1.55;85.43;101192.10;210047;1297;243755;-69
2022/11/27 04:05:18;;;;;;;66.90;36.70;;;;;;;1.67;85.26;101192.42;210089;1295;141072;-69
2022/11/27 04:10:21;;;;;;;68.00;36.30;;;;;;;1.69;85.26;101184.70;209957;1297;141022;-68
2022/11/27 04:15:25;;;;;;;60.70;35.60;;;;;;;1.61;85.07;101183.85;210058;1295;140036;-69
2022/11/27 04:20:28;;;;;;;61.20;30.50;;;;;;;1.55;85.14;101185.48;209994;1298;140763;-69
2022/11/27 04:25:31;;;;;;;60.90;32.00;;;;;;;1.59;85.43;101176.75;210295;1302;141210;-68
2022/11/27 04:30:35;;;;;;;59.80;30.80;;;;;;;1.60;85.12;101176.06;209932;1294;140123;-69
2022/11/27 04:35:38;;;;;;;67.00;32.40;;;;;;;1.51;85.17;101176.80;209963;1295;140020;-69
2022/11/27 04:40:41;;;;;;;56.50;27.80;;;;;;;1.52;85.45;101177.08;210326;1294;139868;-69
2022/11/27 04:45:44;;;;;;;69.60;33.50;;;;;;;1.64;85.51;101184.65;210195;1297;140618;-69
2022/11/27 04:50:47;;;;;;;61.10;30.90;;;;;;;1.72;85.60;101189.41;210159;1297;140976;-69
2022/11/27 04:55:51;;;;;;;60.30;32.30;;;;;;;1.69;85.52;101190.35;210056;1295;142890;-69
2022/11/27 05:00:55;;;;;;;75.10;32.40;;;;;;;1.65;85.44;101182.41;209888;1298;141845;-67
2022/11/27 05:05:58;;;;;;;63.70;36.50;;;;;;;1.65;85.21;101192.27;210214;1294;140677;-67
2022/11/27 05:11:06;;;;;;;76.20;41.40;;;;;;;1.71;85.59;101181.73;210273;1288;140490;-67
2022/11/27 05:16:10;;;;;;;65.30;37.50;;;;;;;1.72;85.47;101182.92;208823;1287;141825;-67
2022/11/27 05:21:14;;;;;;;95.80;41.70;;;;;;;1.59;85.01;101177.02;209064;1297;152783;-67
2022/11/27 05:26:17;;;;;;;77.70;38.20;;;;;;;1.55;85.28;101168.67;209745;1297;139964;-67
2022/11/27 05:31:20;;;;;;;73.80;37.40;;;;;;;1.58;85.45;101168.06;210145;1295;140349;-67
2022/11/27 05:36:24;;;;;;;53.60;27.70;;;;;;;1.51;85.25;101160.62;210196;1297;141399;-67
2022/11/27 05:41:28;;;;;;;65.90;31.50;;;;;;;1.45;85.71;101165.77;210129;1297;141543;-66
2022/11/27 05:46:31;;;;;;;66.80;32.60;;;;;;;1.55;85.76;101168.64;210034;1296;141604;-67
2022/11/27 05:51:35;;;;;;;61.30;35.10;;;;;;;1.57;85.23;101161.45;210035;1288;141552;-67
2022/11/27 05:56:38;;;;;;;70.90;37.20;;;;;;;1.48;85.49;101155.02;210226;1297;140641;-67
2022/11/27 06:01:42;;;;;;;70.30;32.00;;;;;;;1.51;85.58;101156.84;210099;1302;141605;-68
2022/11/27 06:06:45;;;;;;;68.90;33.00;;;;;;;1.59;85.56;101154.05;210014;1297;141788;-68
2022/11/27 06:11:48;;;;;;;64.90;34.10;;;;;;;1.54;84.99;101147.39;210177;1295;140308;-67
2022/11/27 06:16:52;;;;;;;57.80;30.30;;;;;;;1.47;85.16;101143.70;210304;1287;140289;-67
2022/11/27 06:21:56;;;;;;;63.70;33.50;;;;;;;1.38;85.35;101135.74;209680;1297;139490;-67
2022/11/27 06:26:59;;;;;;;81.50;33.70;;;;;;;1.36;85.61;101139.98;210044;1288;139667;-67
2022/11/27 06:32:03;;;;;;;64.70;33.70;;;;;;;1.50;86.25;101147.27;210232;1295;140527;-67
2022/11/27 06:37:07;;;;;;;65.80;38.60;;;;;;;1.60;86.06;101150.63;210029;1297;142244;-67
2022/11/27 06:42:15;;;;;;;66.70;34.50;;;;;;;1.65;86.46;101149.15;207649;1289;236973;-68
2022/11/27 06:47:19;;;;;;;64.50;31.80;;;;;;;1.66;86.02;101146.47;209429;1295;140605;-67
2022/11/27 06:52:22;;;;;;;72.70;33.30;;;;;;;1.75;85.91;101149.73;209169;1290;140377;-66
2022/11/27 06:57:25;;;;;;;65.10;34.20;;;;;;;1.76;85.75;101145.35;210172;1297;139801;-66
2022/11/27 07:02:29;;;;;;;78.70;37.20;;;;;;;1.81;86.34;101152.84;209890;1295;140223;-66
2022/11/27 07:07:32;;;;;;;75.50;33.90;;;;;;;1.85;86.15;101151.71;209334;1295;139939;-67
2022/11/27 07:12:36;;;;;;;59.40;31.40;;;;;;;1.93;85.99;101152.66;210128;1294;140905;-68
2022/11/27 07:24:27;;;;;;;58.60;29.40;;;;;;;2.07;85.92;101157.88;208909;1288;390537;-66
2022/11/27 07:29:30;;;;;;;69.70;35.70;;;;;;;1.97;85.70;101161.23;208358;1288;142313;-66
2022/11/27 07:34:34;;;;;;;73.10;33.40;;;;;;;1.98;85.66;101161.31;210181;1297;140786;-66
2022/11/27 07:39:37;;;;;;;65.30;33.80;;;;;;;2.06;85.97;101164.64;210084;1295;243613;-66
2022/11/27 07:45:01;;;;;;;58.00;30.90;;;;;;;2.11;86.12;101158.86;210197;1294;139887;-64
2022/11/27 07:50:07;;;;;;;49.90;25.90;;;;;;;2.19;86.32;101153.34;209931;1300;141931;-66
2022/11/27 07:55:10;;;;;;;54.60;29.60;;;;;;;2.27;85.77;101153.48;209896;1289;141278;-65
2022/11/27 08:00:14;;;;;;;55.60;28.00;;;;;;;2.40;86.32;101153.78;209991;1294;140776;-67
2022/11/27 08:05:17;;;;;;;49.60;24.30;;;;;;;2.45;86.17;101149.66;210084;1301;139648;-64
2022/11/27 08:10:21;;;;;;;54.40;26.80;;;;;;;2.49;86.24;101153.30;210258;1295;139840;-63
2022/11/27 08:15:24;;;;;;;64.00;28.40;;;;;;;2.65;86.29;101150.69;210077;1300;142696;-66
2022/11/27 08:20:27;;;;;;;56.90;27.20;;;;;;;2.74;86.14;101151.54;209890;1296;140443;-67
2022/11/27 08:25:32;;;;;;;57.80;26.80;;;;;;;2.74;86.04;101153.66;210091;1293;141464;-68
2022/11/27 08:30:38;;;;;;;51.30;29.30;;;;;;;2.81;85.88;101151.77;209845;1295;140150;-66
2022/11/27 08:35:47;;;;;;;57.50;32.50;;;;;;;2.93;86.14;101156.36;209783;1295;152786;-68
2022/11/27 08:40:56;;;;;;;57.70;26.30;;;;;;;3.01;86.35;101158.30;209173;1293;141125;-66
2022/11/27 08:46:03;;;;;;;53.00;25.80;;;;;;;3.09;86.34;101157.98;209682;1293;139890;-67
2022/11/27 08:51:10;;;;;;;49.70;26.90;;;;;;;3.20;86.31;101159.69;210207;1295;140630;-68
2022/11/27 08:56:17;;;;;;;47.00;25.00;;;;;;;3.28;86.23;101160.90;210105;1301;153163;-68
2022/11/27 09:01:26;;;;;;;56.50;27.60;;;;;;;3.28;85.86;101162.47;209990;1300;139856;-68
2022/11/27 09:06:33;;;;;;;52.20;29.90;;;;;;;3.33;86.18;101170.13;208753;1295;141330;-68
2022/11/27 09:11:37;;;;;;;;;;;;;;;3.42;85.95;101173.53;210084;1295;140569;-68
2022/11/27 09:16:41;;;;;;;58.70;28.50;;;;;;;3.45;85.92;101175.98;210653;1294;126400;-69
2022/11/27 09:21:45;;;;;;;54.80;29.00;;;;;;;3.46;86.25;101181.05;210074;1295;140295;-68
2022/11/27 09:26:48;;;;;;;58.30;29.90;;;;;;;3.57;86.21;101186.84;209894;1294;141170;-68
2022/11/27 09:31:52;;;;;;;67.30;34.00;;;;;;;3.66;85.98;101188.70;210021;1295;141074;-68
2022/11/27 09:36:56;;;;;;;61.00;32.10;;;;;;;3.73;85.94;101189.41;210117;1300;141344;-68
2022/11/27 09:42:03;;;;;;;45.00;26.30;;;;;;;3.78;86.01;101178.92;210107;1295;141629;-69
2022/11/27 09:47:20;;;;;;;54.10;29.00;;;;;;;3.82;85.98;101178.11;210217;1301;141622;-67
2022/11/27 09:52:43;;;;;;;47.90;26.80;;;;;;;3.96;86.02;101177.27;210176;1300;142146;-68
2022/11/27 09:58:01;;;;;;;62.90;30.40;;;;;;;4.04;85.69;101168.65;209865;1296;141388;-67
2022/11/27 10:03:14;;;;;;;52.40;29.00;;;;;;;4.10;85.99;101162.98;210067;1294;141344;-67
2022/11/27 10:08:29;;;;;;;45.10;25.00;;;;;;;4.15;85.79;101159.67;210108;1295;141029;-67
2022/11/27 10:13:55;;;;;;;49.70;30.10;;;;;;;4.20;85.53;101156.96;210085;1297;140999;-68
2022/11/27 10:19:42;;;;;;;61.10;30.80;;;;;;;4.25;85.76;101157.91;210118;1307;151389;-67
2022/11/27 10:24:57;;;;;;;50.60;26.10;;;;;;;4.28;85.50;101150.48;209853;1295;140181;-67
2022/11/27 10:30:03;;;;;;;53.00;25.50;;;;;;;4.32;85.82;101144.55;209968;1300;140827;-67
2022/11/27 10:35:20;;;;;;;47.60;26.50;;;;;;;4.35;84.97;101135.49;210038;1297;140781;-67
2022/11/27 10:40:39;;;;;;;50.60;28.40;;;;;;;4.30;84.72;101125.69;209237;1301;140604;-67
2022/11/27 10:45:48;;;;;;;58.20;27.20;;;;;;;4.29;85.23;101120.10;208962;1294;140113;-66
2022/11/27 10:50:52;;;;;;;47.70;27.80;;;;;;;4.39;85.25;101116.80;207858;1295;140422;-66
2022/11/27 10:56:13;;;;;;;46.30;25.20;;;;;;;4.56;85.75;101110.11;208364;1287;141309;-66
2022/11/27 11:01:22;;;;;;;45.60;27.30;;;;;;;4.66;85.89;101109.92;209503;1293;966296;-66
2022/11/27 11:06:30;;;;;;;53.40;25.20;;;;;;;4.73;85.57;101110.17;210159;1297;140890;-67
2022/11/27 11:11:34;;;;;;;37.70;21.10;;;;;;;4.82;85.38;101105.86;207891;1286;141748;-66
2022/11/27 11:16:42;;;;;;;41.40;24.70;;;;;;;4.80;85.22;101102.79;207231;1296;221008;-67
2022/11/27 11:21:45;;;;;;;42.30;24.90;;;;;;;4.86;85.46;101101.44;210048;1297;140670;-68
2022/11/27 11:26:57;;;;;;;45.50;25.90;;;;;;;4.84;84.98;101099.36;209916;1293;139914;-68
2022/11/27 11:32:11;;;;;;;40.60;24.10;;;;;;;4.96;85.17;101097.36;210023;1303;139953;-66
2022/11/27 11:37:25;;;;;;;38.20;23.00;;;;;;;5.08;85.60;101091.83;210031;1300;140211;-66
2022/11/27 11:42:33;;;;;;;44.10;23.90;;;;;;;5.14;85.25;101093.52;210212;1295;140451;-68
2022/11/27 11:47:45;;;;;;;32.90;19.10;;;;;;;5.19;85.55;101091.13;210142;1300;139826;-68
2022/11/27 11:53:18;;;;;;;40.10;21.80;;;;;;;5.25;84.97;101083.41;210139;1297;140505;-70
2022/11/27 11:58:31;;;;;;;37.00;23.70;;;;;;;5.32;85.03;101073.27;210172;1300;140865;-68
2022/11/27 12:03:56;;;;;;;44.00;22.00;;;;;;;5.40;84.97;101073.88;210179;1293;140016;-68
2022/11/27 12:09:22;;;;;;;42.50;22.40;;;;;;;5.47;84.63;101069.77;210122;1302;140289;-69
2022/11/27 12:14:46;;;;;;;41.40;23.40;;;;;;;5.51;84.83;101064.88;209876;1297;141563;-67
2022/11/27 12:20:04;;;;;;;36.90;19.60;;;;;;;5.55;84.77;101052.38;207043;1296;248117;-68
2022/11/27 12:25:24;;;;;;;39.70;21.10;;;;;;;5.58;84.64;101047.14;209068;1294;139968;-68
2022/11/27 12:30:56;;;;;;;46.10;22.50;;;;;;;5.60;84.10;101045.61;210144;1295;141655;-69
2022/11/27 12:36:29;;;;;;;41.10;21.10;;;;;;;5.63;84.55;101051.66;209091;1303;140917;-68
2022/11/27 12:41:32;;;;;;;44.10;23.90;;;;;;;5.62;84.21;101054.64;209293;1301;139955;-67
2022/11/27 12:46:59;;;;;;;38.90;21.50;;;;;;;5.59;84.14;101057.63;210244;1288;140437;-67
2022/11/27 12:52:31;;;;;;;41.20;24.10;;;;;;;5.54;84.03;101062.45;207084;1296;141164;-67
2022/11/27 12:57:44;;;;;;;36.20;23.00;;;;;;;5.62;84.32;101059.87;208926;1296;139883;-67
2022/11/27 13:03:24;;;;;;;45.70;24.00;;;;;;;5.67;84.33;101055.48;206721;1288;140615;-66
2022/11/27 13:08:43;;;;;;;42.00;23.20;;;;;;;5.63;84.02;101050.07;206415;1287;151170;-68
2022/11/27 13:14:02;;;;;;;37.00;20.50;;;;;;;5.56;83.89;101054.56;207028;1297;140030;-68
2022/11/27 13:19:22;;;;;;;42.10;24.60;;;;;;;5.53;84.05;101058.30;210142;1298;140733;-68
2022/11/27 13:24:28;;;;;;;50.00;28.00;;;;;;;5.53;83.87;101053.88;209251;1297;142932;-67
2022/11/27 13:29:58;;;;;;;47.60;25.00;;;;;;;5.53;84.72;101054.79;207935;1288;139799;-68
2022/11/27 13:35:04;;;;;;;46.60;24.10;;;;;;;5.46;83.95;101043.19;207492;1280;140337;-68
2022/11/27 13:40:28;;;;;;;39.40;22.20;;;;;;;5.42;84.02;101044.52;206425;1294;141203;-68
2022/11/27 13:45:36;;;;;;;33.60;22.40;;;;;;;5.40;83.96;101034.67;206757;1294;140416;-67
2022/11/27 13:50:45;;;;;;;46.10;26.20;;;;;;;5.34;83.95;101024.61;209886;1303;140151;-68
2022/11/27 13:55:55;;;;;;;38.60;22.20;;;;;;;5.29;84.20;101025.70;209808;1295;141227;-68
2022/11/27 14:01:12;;;;;;;39.60;22.90;;;;;;;5.28;83.76;101015.52;210010;1301;140571;-68
2022/11/27 14:06:26;;;;;;;38.70;24.90;;;;;;;5.21;83.34;101020.23;210127;1297;141066;-68
2022/11/27 14:11:41;;;;;;;41.40;23.70;;;;;;;5.07;83.76;101022.09;209890;1295;140489;-69
2022/11/27 14:17:03;;;;;;;40.20;22.80;;;;;;;5.04;83.80;101026.09;210093;1295;140973;-70
2022/11/27 14:22:31;;;;;;;35.60;19.90;;;;;;;5.09;83.99;101022.95;209782;1297;141545;-67
2022/11/27 14:27:36;;;;;;;35.90;21.00;;;;;;;5.04;84.00;101022.92;210029;1296;139749;-67
2022/11/27 14:32:41;;;;;;;43.10;24.30;;;;;;;4.98;84.02;101033.45;210033;1296;141045;-68
2022/11/27 14:37:45;;;;;;;41.70;20.50;;;;;;;4.92;83.83;101033.98;209733;1300;141037;-69
2022/11/27 14:42:49;;;;;;;34.40;21.70;;;;;;;4.90;83.72;101037.48;209904;1300;140746;-68
2022/11/27 14:47:54;;;;;;;40.70;21.20;;;;;;;4.83;83.53;101039.55;210052;1303;141040;-69
2022/11/27 14:52:58;;;;;;;38.20;19.80;;;;;;;4.73;83.75;101041.52;210127;1299;140359;-67
2022/11/27 14:58:02;;;;;;;36.30;19.70;;;;;;;4.70;83.68;101038.52;210123;1300;139866;-67
2022/11/27 15:03:08;;;;;;;32.70;21.20;;;;;;;4.64;83.33;101035.97;210003;1298;141757;-69
2022/11/27 15:08:14;;;;;;;40.80;22.10;;;;;;;4.58;83.30;101045.13;209199;1290;140764;-67
2022/11/27 15:13:36;;;;;;;33.10;21.10;;;;;;;4.50;83.60;101036.83;209959;1297;141006;-67
2022/11/27 15:18:42;;;;;;;33.50;19.30;;;;;;;4.39;83.29;101031.92;210150;1294;141671;-68
2022/11/27 15:23:48;;;;;;;35.70;19.70;;;;;;;4.30;83.13;101031.74;207913;1295;249541;-69
2022/11/27 15:28:55;;;;;;;33.00;17.60;;;;;;;4.17;83.11;101031.16;210047;1295;142190;-64
2022/11/27 15:34:23;;;;;;;34.00;18.90;;;;;;;3.96;83.07;101027.24;210171;1294;140485;-65
2022/11/27 15:39:34;;;;;;;42.70;23.20;;;;;;;3.89;83.65;101024.59;209994;1294;139624;-64
2022/11/27 15:44:37;;;;;;;121.70;56.90;;;;;;;3.97;83.77;101030.08;210165;1301;140910;-65
2022/11/27 15:49:41;;;;;;;79.50;36.20;;;;;;;4.02;84.08;101029.73;210146;1293;141037;-66
2022/11/27 15:54:44;;;;;;;89.10;42.30;;;;;;;4.05;83.90;101026.61;209840;1288;140747;-66
2022/11/27 15:59:51;;;;;;;82.60;40.40;;;;;;;3.97;83.57;101023.19;209824;1295;139977;-67
2022/11/27 16:04:55;;;;;;;87.80;45.10;;;;;;;3.94;83.70;101024.41;209945;1294;141412;-65
2022/11/27 16:10:00;;;;;;;74.50;38.30;;;;;;;3.88;83.52;101022.94;209896;1295;140210;-70
2022/11/27 16:15:05;;;;;;;49.20;31.60;;;;;;;3.84;83.85;101017.17;209773;1300;140875;-68
2022/11/27 16:20:10;;;;;;;44.40;25.00;;;;;;;3.81;83.82;101006.48;209773;1297;140690;-67
2022/11/27 16:25:19;;;;;;;40.30;24.90;;;;;;;3.80;83.55;101000.21;209878;1298;143388;-67
2022/11/27 16:30:24;;;;;;;44.60;26.60;;;;;;;3.77;83.80;100995.79;209668;1295;140757;-68
2022/11/27 16:35:28;;;;;;;57.80;31.10;;;;;;;3.80;84.04;100982.84;210010;1294;141682;-71
2022/11/27 16:40:33;;;;;;;50.50;24.20;;;;;;;3.75;83.84;100973.16;208299;1288;140735;-63
2022/11/27 16:45:37;;;;;;;42.70;26.30;;;;;;;3.73;83.65;100969.10;207778;1295;232046;-65
2022/11/27 16:50:41;;;;;;;50.50;30.20;;;;;;;3.62;83.55;100960.94;210037;1289;141059;-64
2022/11/27 16:55:46;;;;;;;54.00;30.70;;;;;;;3.44;83.35;100954.73;210090;1301;141172;-64
2022/11/27 17:00:53;;;;;;;48.20;27.90;;;;;;;3.30;83.50;100958.37;209933;1295;141243;-65
2022/11/27 17:05:57;;;;;;;78.80;44.80;;;;;;;3.37;84.19;100962.87;210001;1295;142862;-64
2022/11/27 17:11:08;;;;;;;79.00;44.60;;;;;;;3.46;84.59;100965.45;210083;1297;141237;-68
2022/11/27 17:16:12;;;;;;;64.00;37.30;;;;;;;3.50;84.21;100965.96;208820;1289;244862;-68
2022/11/27 17:21:23;;;;;;;59.70;33.70;;;;;;;3.35;83.86;100964.65;209779;1297;140904;-70
2022/11/27 17:26:29;;;;;;;72.20;38.80;;;;;;;3.31;83.69;100962.11;207201;1288;141214;-69
2022/11/27 17:31:35;;;;;;;62.00;35.80;;;;;;;3.24;83.59;100963.05;206689;1289;142203;-67
2022/11/27 17:36:46;;;;;;;64.90;35.50;;;;;;;3.12;83.65;100957.96;206794;1281;226509;-69
2022/11/27 17:41:52;;;;;;;52.80;31.00;;;;;;;3.06;83.71;100946.65;207074;1289;140671;-68
2022/11/27 17:46:57;;;;;;;59.00;34.30;;;;;;;2.97;83.27;100945.42;210125;1291;140657;-66
2022/11/27 17:52:02;;;;;;;56.80;34.80;;;;;;;2.89;83.46;100950.89;210237;1295;141762;-66
2022/11/27 17:57:12;;;;;;;59.80;35.20;;;;;;;2.79;83.41;100956.23;210050;1295;141398;-72
2022/11/27 18:02:15;;;;;;;65.40;37.50;;;;;;;2.65;83.20;100953.54;209955;1297;139692;-68
2022/11/27 18:07:19;;;;;;;56.30;27.70;;;;;;;2.47;82.62;100950.64;209982;1297;140201;-69
2022/11/27 18:12:23;;;;;;;63.10;35.40;;;;;;;2.34;82.34;100943.13;210058;1302;210085;-69
2022/11/27 18:17:28;;;;;;;62.00;34.90;;;;;;;2.18;82.19;100948.80;209859;1291;140544;-68
2022/11/27 18:22:32;;;;;;;50.30;32.50;;;;;;;2.00;81.99;100943.55;209401;1297;140337;-67
2022/11/27 18:27:37;;;;;;;54.70;34.00;;;;;;;1.80;82.02;100938.38;206649;1288;139519;-67
2022/11/27 18:32:42;;;;;;;91.70;44.00;;;;;;;1.66;82.63;100935.67;209172;1297;139612;-67
2022/11/27 18:37:47;;;;;;;90.20;43.00;;;;;;;1.64;82.62;100930.76;209996;1294;141109;-67
2022/11/27 18:42:54;;;;;;;102.50;46.90;;;;;;;1.60;82.62;100920.33;208378;1295;142702;-67
2022/11/27 18:48:00;;;;;;;84.20;43.70;;;;;;;1.48;82.37;100915.48;210029;1288;141544;-67
2022/11/27 18:53:04;;;;;;;68.90;38.80;;;;;;;1.21;81.92;100916.33;210165;1296;141084;-67
2022/11/27 18:58:08;;;;;;;78.80;42.60;;;;;;;1.04;81.94;100916.04;208903;1288;140548;-68
2022/11/27 19:03:14;;;;;;;79.50;46.00;;;;;;;0.92;81.78;100907.83;208272;1290;142440;-66
2022/11/27 19:08:20;;;;;;;91.60;50.20;;;;;;;0.74;82.08;100902.94;210155;1295;140596;-66
2022/11/27 19:13:26;;;;;;;90.10;50.60;;;;;;;0.51;81.97;100899.98;210069;1286;141740;-69
2022/11/27 19:18:32;;;;;;;102.10;55.10;;;;;;;0.48;82.43;100901.63;209517;1295;141131;-66
2022/11/27 19:23:36;;;;;;;116.50;61.30;;;;;;;0.53;83.33;100902.29;209550;1294;140971;-67
2022/11/27 19:28:46;;;;;;;108.20;65.30;;;;;;;0.51;82.72;100903.17;210203;1294;139801;-67
2022/11/27 19:33:59;;;;;;;102.10;56.30;;;;;;;0.46;82.96;100901.55;210133;1294;226897;-67
2022/11/27 19:39:19;;;;;;;99.40;57.50;;;;;;;0.46;82.68;100894.37;210061;1291;224764;-66
2022/11/27 19:44:26;;;;;;;84.50;53.40;;;;;;;0.43;82.91;100894.29;210067;1294;140338;-67
2022/11/27 19:49:31;;;;;;;97.20;56.30;;;;;;;0.43;83.04;100889.41;210029;1288;139274;-67
2022/11/27 19:54:36;;;;;;;88.40;49.70;;;;;;;0.36;82.93;100895.09;209985;1287;139888;-68
2022/11/27 19:59:41;;;;;;;87.60;48.80;;;;;;;0.23;82.82;100897.50;210133;1290;139763;-66
2022/11/27 20:04:45;;;;;;;85.90;47.00;;;;;;;0.19;82.47;100903.16;210028;1295;140336;-67
2022/11/27 20:09:51;;;;;;;78.00;53.10;;;;;;;0.18;82.66;100903.77;210237;1294;140040;-67
2022/11/27 20:14:58;;;;;;;88.80;51.50;;;;;;;0.16;82.84;100907.58;210152;1288;141372;-67
2022/11/27 20:20:02;;;;;;;84.10;47.90;;;;;;;0.12;83.43;100907.22;210036;1297;153975;-66
2022/11/27 20:25:08;;;;;;;78.40;41.40;;;;;;;0.13;83.23;100909.06;209899;1297;140534;-66
2022/11/27 20:30:22;;;;;;;69.10;44.60;;;;;;;0.15;83.08;100907.35;209327;1295;140417;-66
2022/11/27 20:35:27;;;;;;;75.20;45.70;;;;;;;0.03;82.27;100913.01;209961;1294;140129;-66
2022/11/27 20:40:32;;;;;;;79.20;46.60;;;;;;;-0.11;82.62;100914.72;210111;1302;139775;-67
2022/11/27 20:45:37;;;;;;;80.70;44.00;;;;;;;-0.09;83.29;100918.61;209996;1294;140516;-67
2022/11/27 20:50:43;;;;;;;75.40;47.20;;;;;;;-0.05;83.38;100918.89;209578;1295;141065;-67
2022/11/27 20:55:53;;;;;;;86.50;47.50;;;;;;;-0.06;82.97;100919.73;209618;1287;140695;-66
2022/11/27 21:01:00;;;;;;;94.10;49.40;;;;;;;-0.21;82.40;100915.64;209937;1289;151061;-66
2022/11/27 21:06:06;;;;;;;93.30;50.50;;;;;;;-0.37;82.35;100906.08;210045;1288;140421;-69
2022/11/27 21:11:23;;;;;;;78.50;43.70;;;;;;;-0.45;82.48;100903.67;210044;1295;140988;-69
2022/11/27 21:16:28;;;;;;;;;;;;;;;-0.40;83.08;100900.23;209973;1293;140538;-69
2022/11/27 21:21:33;;;;;;;91.30;56.20;;;;;;;-0.37;83.36;100892.06;208192;1287;126323;-66
2022/11/27 21:26:38;;;;;;;91.70;52.70;;;;;;;-0.31;83.57;100884.13;210109;1290;140478;-66
2022/11/27 21:31:42;;;;;;;91.60;45.50;;;;;;;-0.30;83.46;100880.33;209970;1295;140709;-66
2022/11/27 21:36:50;;;;;;;124.60;60.70;;;;;;;-0.35;82.94;100866.95;210099;1296;141480;-66
2022/11/27 21:41:54;;;;;;;83.40;47.90;;;;;;;-0.47;82.53;100856.47;209922;1301;140865;-67
2022/11/27 21:47:01;;;;;;;82.30;45.90;;;;;;;-0.55;82.88;100847.95;210145;1294;140778;-67
2022/11/27 21:52:05;;;;;;;83.20;46.10;;;;;;;-0.57;83.21;100844.28;209941;1297;141238;-66
2022/11/27 21:57:09;;;;;;;70.20;40.60;;;;;;;-0.54;83.51;100844.54;209947;1294;139798;-67
2022/11/27 22:02:12;;;;;;;83.70;47.80;;;;;;;-0.46;83.40;100848.16;209962;1297;141028;-67
2022/11/27 22:07:16;;;;;;;82.20;45.80;;;;;;;-0.41;83.61;100848.95;210140;1298;141118;-66
2022/11/27 22:12:19;;;;;;;89.80;54.20;;;;;;;-0.37;83.71;100844.11;209984;1287;140284;-65
2022/11/27 22:17:24;;;;;;;91.40;47.10;;;;;;;-0.30;84.12;100839.60;210141;1298;140898;-66
2022/11/27 22:22:27;;;;;;;80.70;51.30;;;;;;;-0.17;84.04;100847.35;210064;1295;160183;-65
2022/11/27 22:27:31;;;;;;;93.40;51.00;;;;;;;-0.14;83.76;100847.60;209983;1294;140486;-66
2022/11/27 22:32:35;;;;;;;88.80;51.00;;;;;;;-0.19;83.67;100848.45;210094;1295;140266;-66
2022/11/27 22:37:38;;;;;;;89.10;50.60;;;;;;;-0.40;82.82;100843.13;210032;1293;139902;-66
2022/11/27 22:42:42;;;;;;;100.30;47.60;;;;;;;-0.61;82.68;100840.62;210030;1297;141399;-66
2022/11/27 22:47:45;;;;;;;86.50;49.30;;;;;;;-0.70;82.70;100835.69;209955;1296;142375;-66
2022/11/27 22:52:49;;;;;;;96.40;55.60;;;;;;;-0.62;83.66;100829.02;210227;1289;163740;-66
2022/11/27 22:57:57;;;;;;;91.30;52.40;;;;;;;-0.56;84.23;100823.79;210119;1304;140393;-66
2022/11/27 23:03:00;;;;;;;79.90;40.20;;;;;;;-0.55;83.69;100820.56;209517;1297;329068;-67
2022/11/27 23:08:04;;;;;;;85.00;48.90;;;;;;;-0.52;83.67;100828.14;210035;1290;140841;-66
2022/11/27 23:13:08;;;;;;;86.60;53.20;;;;;;;-0.51;83.44;100830.68;209132;1294;140759;-66